RJBM(METAR)
12/16 16:00
METAR RJBM 160700Z 32012KT 9999 FEW020 SCT030 BKN050 10/03 Q1014 RMK
1CU020 4CU030 7SC050 A2995=
戻る
トップページへ戻る
IMOC Co,.Ltd.